createdAt,value
2022-08-16T00:01:34.008Z,42.68
2022-08-16T00:04:05.277Z,42.30
2022-08-16T00:06:33.945Z,42.61
2022-08-16T00:09:05.388Z,42.50
2022-08-16T00:11:34.719Z,42.65
2022-08-16T00:14:08.715Z,42.46
2022-08-16T00:17:06.638Z,42.84
2022-08-16T00:19:41.766Z,42.64
2022-08-16T00:22:13.527Z,42.95
2022-08-16T00:24:44.743Z,42.51
2022-08-16T00:27:15.508Z,42.92
2022-08-16T00:29:47.474Z,42.71
2022-08-16T00:32:18.203Z,43.08
2022-08-16T00:34:53.262Z,42.73
2022-08-16T00:37:25.146Z,42.32
2022-08-16T00:40:33.726Z,42.99
2022-08-16T00:43:11.679Z,42.93
2022-08-16T00:45:58.384Z,42.95
2022-08-16T00:48:44.000Z,42.79
2022-08-16T00:51:16.219Z,42.75
2022-08-16T00:53:46.973Z,43.11
2022-08-16T00:56:58.504Z,43.18
2022-08-16T00:59:16.370Z,43.18
2022-08-16T01:01:46.585Z,43.39
2022-08-16T01:04:28.909Z,43.39
2022-08-16T01:07:01.792Z,43.02
2022-08-16T01:09:33.465Z,42.83
2022-08-16T01:12:04.846Z,43.18
2022-08-16T01:14:45.202Z,43.30
2022-08-16T01:17:20.251Z,43.48
2022-08-16T01:19:57.310Z,43.45
2022-08-16T01:22:59.279Z,43.00
2022-08-16T01:25:36.289Z,43.01
2022-08-16T01:28:09.518Z,43.57
2022-08-16T01:30:49.540Z,43.31
2022-08-16T01:33:22.445Z,43.34
2022-08-16T01:35:57.606Z,43.54
2022-08-16T01:38:30.861Z,43.65
2022-08-16T01:41:06.479Z,43.85
2022-08-16T01:43:38.439Z,43.77
2022-08-16T01:46:30.011Z,44.28
2022-08-16T01:49:06.018Z,44.16
2022-08-16T01:51:39.401Z,44.30
2022-08-16T01:54:09.564Z,44.39
2022-08-16T01:56:51.791Z,44.27
2022-08-16T01:59:24.755Z,44.27
2022-08-16T02:01:59.703Z,44.69
2022-08-16T02:04:48.100Z,44.32
2022-08-16T02:07:23.724Z,44.20
2022-08-16T02:09:59.040Z,44.37
2022-08-16T02:12:49.333Z,44.54
2022-08-16T02:15:25.400Z,44.57
2022-08-16T02:17:56.278Z,45.20
2022-08-16T02:20:26.353Z,45.15
2022-08-16T02:22:56.742Z,44.80
2022-08-16T02:25:52.077Z,44.88
2022-08-16T02:28:19.321Z,44.82
2022-08-16T02:30:51.773Z,44.96
2022-08-16T02:33:24.960Z,45.21
2022-08-16T02:36:47.335Z,45.86
2022-08-16T02:39:03.624Z,45.89
2022-08-16T02:41:37.415Z,45.96
2022-08-16T02:44:13.926Z,46.32
2022-08-16T02:46:49.816Z,46.06
2022-08-16T02:49:20.799Z,45.98
2022-08-16T02:51:50.219Z,46.19
2022-08-16T02:54:19.134Z,46.42
2022-08-16T02:56:52.689Z,46.52
2022-08-16T02:59:23.954Z,46.40
2022-08-16T03:01:52.455Z,46.48
2022-08-16T03:04:50.301Z,46.45
2022-08-16T03:07:17.431Z,46.26
2022-08-16T03:10:00.655Z,46.29
2022-08-16T03:12:36.797Z,46.24
2022-08-16T03:15:10.469Z,46.10
2022-08-16T03:17:53.843Z,46.00
2022-08-16T03:20:32.207Z,46.43
2022-08-16T03:23:02.173Z,46.02
2022-08-16T03:25:40.948Z,46.31
2022-08-16T03:28:16.996Z,46.31
2022-08-16T03:30:48.697Z,46.62
2022-08-16T03:33:18.436Z,46.62
2022-08-16T03:36:29.787Z,46.73
2022-08-16T03:38:53.280Z,46.54
2022-08-16T03:41:25.092Z,46.50
2022-08-16T03:43:57.531Z,46.66
2022-08-16T03:46:47.799Z,46.71
2022-08-16T03:49:36.560Z,47.10
2022-08-16T03:52:08.729Z,47.19
2022-08-16T03:54:38.822Z,46.39
2022-08-16T03:57:22.465Z,46.77
2022-08-16T03:59:53.008Z,46.20
2022-08-16T04:02:31.704Z,46.33
2022-08-16T04:05:03.918Z,46.23
2022-08-16T04:07:34.003Z,46.35
2022-08-16T04:10:27.984Z,46.28
2022-08-16T04:12:59.430Z,46.34
2022-08-16T04:15:31.451Z,46.39
2022-08-16T04:18:30.968Z,46.32
2022-08-16T04:21:00.676Z,46.50
2022-08-16T04:23:33.367Z,46.44
2022-08-16T04:26:02.298Z,46.50
2022-08-16T04:28:55.654Z,46.67
2022-08-16T04:31:23.803Z,46.83
2022-08-16T04:33:59.499Z,46.71
2022-08-16T04:36:29.117Z,46.62
2022-08-16T04:38:57.917Z,46.15
2022-08-16T04:41:32.928Z,46.28
2022-08-16T04:44:32.589Z,46.24
2022-08-16T04:47:02.480Z,46.79
2022-08-16T04:49:43.791Z,46.56
2022-08-16T04:52:33.518Z,46.52
2022-08-16T04:55:08.332Z,46.30
2022-08-16T04:57:41.352Z,46.36
2022-08-16T05:00:31.111Z,46.47
2022-08-16T05:03:09.457Z,46.71
2022-08-16T05:05:59.546Z,46.63
2022-08-16T05:08:32.389Z,47.00
2022-08-16T05:11:08.537Z,46.70
2022-08-16T05:13:42.329Z,46.57
2022-08-16T05:16:21.471Z,46.19
2022-08-16T05:18:56.646Z,46.45
2022-08-16T05:21:35.764Z,46.10
2022-08-16T05:24:09.931Z,45.87
2022-08-16T05:26:43.476Z,45.92
2022-08-16T05:29:20.736Z,46.04
2022-08-16T05:32:32.937Z,46.04
2022-08-16T05:34:55.483Z,45.88
2022-08-16T05:37:25.932Z,45.88
2022-08-16T05:39:57.667Z,45.99
2022-08-16T05:42:35.890Z,46.21
2022-08-16T05:45:07.321Z,46.06
2022-08-16T05:47:43.368Z,45.74
2022-08-16T05:50:19.089Z,45.39
2022-08-16T05:52:51.223Z,45.27
2022-08-16T05:55:21.144Z,45.20
2022-08-16T05:57:52.558Z,45.02
2022-08-16T06:00:22.913Z,44.68
2022-08-16T06:02:54.739Z,44.29
2022-08-16T06:05:42.107Z,44.34
2022-08-16T06:08:32.437Z,44.02
2022-08-16T06:11:11.024Z,43.81
2022-08-16T06:13:43.461Z,43.75
2022-08-16T06:16:18.046Z,43.03
2022-08-16T06:18:47.928Z,42.98
2022-08-16T06:21:23.798Z,42.68
2022-08-16T06:24:00.996Z,42.31
2022-08-16T06:26:36.753Z,42.93
2022-08-16T06:29:07.595Z,42.77
2022-08-16T06:31:46.744Z,42.71
2022-08-16T06:34:55.754Z,41.93
2022-08-16T06:37:10.528Z,41.81
2022-08-16T06:39:46.751Z,41.86
2022-08-16T06:42:24.296Z,42.49
2022-08-16T06:45:09.734Z,41.69
2022-08-16T06:47:52.864Z,41.58
2022-08-16T06:50:28.812Z,41.30
2022-08-16T06:53:07.325Z,41.19
2022-08-16T06:55:43.352Z,41.20
2022-08-16T06:58:21.879Z,41.24
2022-08-16T07:00:59.825Z,40.03
2022-08-16T07:03:32.389Z,40.06
2022-08-16T07:06:05.737Z,39.08
2022-08-16T07:08:43.676Z,39.35
2022-08-16T07:11:13.949Z,39.35
2022-08-16T07:13:58.807Z,38.70
2022-08-16T07:16:42.007Z,38.25
2022-08-16T07:19:11.825Z,38.16
2022-08-16T07:21:50.965Z,37.90
2022-08-16T07:24:31.110Z,37.86
2022-08-16T07:27:12.504Z,38.01
2022-08-16T07:29:43.294Z,37.24
2022-08-16T07:32:13.441Z,37.78
2022-08-16T07:34:48.172Z,37.53
2022-08-16T07:37:18.723Z,37.24
2022-08-16T07:40:12.796Z,37.05
2022-08-16T07:42:46.864Z,36.44
2022-08-16T07:45:16.960Z,36.47
2022-08-16T07:47:51.140Z,36.27
2022-08-16T07:50:55.809Z,36.26
2022-08-16T07:53:10.083Z,36.32
2022-08-16T07:55:47.894Z,36.59
2022-08-16T07:58:34.562Z,36.14
2022-08-16T08:01:10.538Z,35.62
2022-08-16T08:03:49.537Z,35.42
2022-08-16T08:06:25.388Z,35.17
2022-08-16T08:08:59.205Z,35.00
2022-08-16T08:11:29.931Z,35.00
2022-08-16T08:14:06.671Z,35.28
2022-08-16T08:16:45.597Z,35.32
2022-08-16T08:19:24.728Z,35.42
2022-08-16T08:21:59.636Z,34.80
2022-08-16T08:24:46.631Z,35.13
2022-08-16T08:27:22.990Z,35.36
2022-08-16T08:30:49.610Z,35.41
2022-08-16T08:32:58.280Z,34.41
2022-08-16T08:35:41.227Z,34.23
2022-08-16T08:38:11.843Z,34.07
2022-08-16T08:40:46.003Z,34.28
2022-08-16T08:43:18.428Z,34.01
2022-08-16T08:45:59.342Z,33.77
2022-08-16T08:48:33.648Z,34.13
2022-08-16T08:51:08.692Z,33.28
2022-08-16T08:53:46.088Z,33.35
2022-08-16T08:56:30.147Z,33.16
2022-08-16T08:59:13.649Z,32.41
2022-08-16T09:01:57.773Z,32.32
2022-08-16T09:04:31.471Z,31.19
2022-08-16T09:07:01.952Z,31.48
2022-08-16T09:09:34.302Z,30.99
2022-08-16T09:12:31.140Z,30.46
2022-08-16T09:15:08.019Z,29.93
2022-08-16T09:17:51.840Z,30.02
2022-08-16T09:20:25.721Z,29.67
2022-08-16T09:22:55.416Z,29.08
2022-08-16T09:25:43.491Z,29.37
2022-08-16T09:29:13.576Z,29.04
2022-08-16T09:31:11.117Z,28.84
2022-08-16T09:33:42.048Z,28.28
2022-08-16T09:36:12.138Z,28.58
2022-08-16T09:39:01.152Z,28.78
2022-08-16T09:41:29.625Z,28.42
2022-08-16T09:44:02.181Z,28.01
2022-08-16T09:46:46.027Z,28.09
2022-08-16T09:49:20.323Z,27.24
2022-08-16T09:51:55.563Z,26.90
2022-08-16T09:54:32.390Z,25.41
2022-08-16T09:57:01.693Z,25.95
2022-08-16T09:59:38.789Z,25.37
2022-08-16T10:02:26.579Z,24.31
2022-08-16T10:04:58.146Z,24.64
2022-08-16T10:07:44.351Z,25.20
2022-08-16T10:10:19.166Z,25.38
2022-08-16T10:13:16.363Z,25.77
2022-08-16T10:15:55.130Z,25.50
2022-08-16T10:19:00.987Z,26.58
2022-08-16T10:21:20.173Z,26.85
2022-08-16T10:23:54.926Z,26.58
2022-08-16T10:27:20.232Z,26.65
2022-08-16T10:29:20.120Z,26.33
2022-08-16T10:31:53.748Z,25.94
2022-08-16T10:34:31.400Z,25.79
2022-08-16T10:37:03.028Z,25.68
2022-08-16T10:39:41.440Z,25.50
2022-08-16T10:42:13.561Z,26.53
2022-08-16T10:44:53.736Z,26.20
2022-08-16T10:47:23.884Z,26.38
2022-08-16T10:49:53.004Z,26.18
2022-08-16T10:52:24.280Z,26.16
2022-08-16T10:55:40.319Z,26.76
2022-08-16T10:57:42.486Z,27.38
2022-08-16T11:00:21.209Z,27.71
2022-08-16T11:02:57.559Z,27.71
2022-08-16T11:08:28.303Z,27.19
2022-08-16T11:11:12.993Z,27.38
2022-08-16T11:14:10.885Z,27.35
2022-08-16T11:19:26.545Z,27.59
2022-08-16T11:22:38.658Z,27.75
2022-08-16T11:25:11.805Z,28.13
2022-08-16T11:27:37.295Z,28.25
2022-08-16T11:30:12.117Z,27.85
2022-08-16T11:32:44.477Z,28.17
2022-08-16T11:35:16.513Z,28.37
2022-08-16T11:40:44.429Z,28.79
2022-08-16T11:43:16.739Z,28.96
2022-08-16T11:45:54.280Z,28.91
2022-08-16T11:48:24.968Z,28.81
2022-08-16T11:50:54.179Z,28.77
2022-08-16T11:53:25.297Z,28.11
2022-08-16T11:55:56.412Z,28.58
2022-08-16T11:58:28.259Z,28.70
2022-08-16T12:00:59.235Z,28.69
2022-08-16T12:03:34.501Z,28.34
2022-08-16T12:06:10.954Z,28.51
2022-08-16T13:11:55.366Z,29.36
2022-08-16T13:14:31.291Z,29.49
2022-08-16T13:17:03.164Z,29.11
2022-08-16T13:20:03.322Z,29.12
2022-08-16T13:22:22.130Z,29.57
2022-08-16T13:24:51.302Z,29.54
2022-08-16T13:27:59.417Z,28.70
2022-08-16T13:30:36.579Z,29.04
2022-08-16T13:33:00.438Z,29.22
2022-08-16T13:35:34.383Z,28.86
2022-08-16T13:38:03.359Z,29.38
2022-08-16T13:40:31.946Z,29.23
2022-08-16T13:43:02.613Z,29.29
2022-08-16T13:45:36.118Z,29.00
2022-08-16T13:48:06.707Z,29.35
2022-08-16T13:50:49.104Z,29.88
2022-08-16T13:53:24.425Z,29.55
2022-08-16T13:55:57.923Z,29.69
2022-08-16T13:58:37.493Z,29.99
2022-08-16T14:01:21.162Z,29.94
2022-08-16T14:03:50.234Z,30.10
2022-08-16T14:06:23.711Z,29.52
2022-08-16T14:09:06.241Z,30.11
2022-08-16T14:11:36.003Z,29.97
2022-08-16T14:14:07.024Z,29.80
2022-08-16T14:16:39.751Z,29.86
2022-08-16T14:19:08.283Z,30.09
2022-08-16T14:21:37.485Z,30.29
2022-08-16T14:24:07.924Z,30.13
2022-08-16T14:26:52.736Z,30.09
2022-08-16T14:29:23.171Z,29.67
2022-08-16T14:31:53.909Z,29.98
2022-08-16T14:34:25.601Z,29.76
2022-08-16T14:36:54.546Z,30.12
2022-08-16T14:39:23.467Z,30.13
2022-08-16T14:41:53.584Z,30.47
2022-08-16T14:44:26.301Z,30.07
2022-08-16T14:46:56.824Z,30.33
2022-08-16T14:49:25.505Z,30.93
2022-08-16T14:51:53.985Z,30.87
2022-08-16T14:54:27.294Z,31.00
2022-08-16T14:56:57.246Z,30.77
2022-08-16T14:59:27.604Z,31.39
2022-08-16T15:02:00.709Z,31.07
2022-08-16T15:04:39.668Z,31.56
2022-08-16T15:07:12.600Z,31.54
2022-08-16T15:09:44.864Z,31.41
2022-08-16T15:12:30.998Z,31.47
2022-08-16T15:15:13.001Z,31.62
2022-08-16T15:17:56.094Z,31.81
2022-08-16T15:20:29.253Z,32.02
2022-08-16T15:23:00.758Z,31.63
2022-08-16T15:25:32.248Z,31.73
2022-08-16T15:28:05.401Z,31.44
2022-08-16T15:30:57.710Z,31.84
2022-08-16T15:33:27.478Z,32.02
2022-08-16T15:35:58.279Z,32.42
2022-08-16T15:38:55.179Z,32.01
2022-08-16T15:41:36.015Z,32.17
2022-08-16T15:44:10.580Z,32.73
2022-08-16T15:46:56.821Z,33.18
2022-08-16T15:49:37.272Z,33.34
2022-08-16T15:52:15.034Z,33.59
2022-08-16T15:54:52.697Z,33.48
2022-08-16T15:57:23.067Z,33.31
2022-08-16T15:59:52.857Z,34.04
2022-08-16T16:02:30.877Z,34.29
2022-08-16T16:05:02.209Z,33.90
2022-08-16T16:07:33.766Z,34.25
2022-08-16T16:10:07.843Z,34.33
2022-08-16T16:12:53.039Z,34.66
2022-08-16T16:15:25.385Z,34.38
2022-08-16T16:17:55.551Z,34.61
2022-08-16T16:20:27.935Z,35.08
2022-08-16T16:22:58.456Z,34.32
2022-08-16T16:25:29.352Z,34.28
2022-08-16T16:27:59.801Z,34.31
2022-08-16T16:30:38.158Z,34.75
2022-08-16T16:33:21.074Z,34.32
2022-08-16T16:35:55.644Z,34.95
2022-08-16T16:38:30.892Z,34.82
2022-08-16T16:41:00.690Z,34.81
2022-08-16T16:43:31.986Z,34.80
2022-08-16T16:46:02.632Z,34.79
2022-08-16T16:48:36.415Z,34.59
2022-08-16T16:51:10.096Z,34.76
2022-08-16T16:53:42.277Z,35.27
2022-08-16T16:56:19.478Z,35.15
2022-08-16T16:58:57.674Z,35.18
2022-08-16T17:01:56.592Z,35.49
2022-08-16T17:04:32.464Z,35.32
2022-08-16T17:07:02.909Z,35.42
2022-08-16T17:09:31.671Z,35.40
2022-08-16T17:12:00.359Z,35.20
2022-08-16T17:14:33.638Z,34.72
2022-08-16T17:17:06.987Z,35.57
2022-08-16T17:19:56.471Z,34.91
2022-08-16T17:22:32.990Z,35.05
2022-08-16T17:25:02.010Z,35.69
2022-08-16T17:27:32.461Z,35.35
2022-08-16T17:30:03.525Z,35.88
2022-08-16T17:32:50.121Z,35.51
2022-08-16T17:35:34.311Z,36.01
2022-08-16T17:38:06.379Z,35.67
2022-08-16T17:40:55.793Z,35.93
2022-08-16T17:43:30.124Z,35.69
2022-08-16T17:45:59.801Z,35.48
2022-08-16T17:48:31.203Z,35.65
2022-08-16T17:51:01.316Z,35.86
2022-08-16T17:53:30.089Z,35.72
2022-08-16T17:55:58.560Z,36.01
2022-08-16T17:58:27.319Z,35.79
2022-08-16T18:00:57.775Z,35.80
2022-08-16T18:04:07.036Z,36.07
2022-08-16T18:06:19.859Z,36.20
2022-08-16T18:08:51.148Z,36.34
2022-08-16T18:11:26.175Z,36.02
2022-08-16T18:13:56.607Z,36.28
2022-08-16T18:16:25.637Z,36.31
2022-08-16T18:18:54.204Z,36.41
2022-08-16T18:21:42.027Z,36.33
2022-08-16T18:24:12.844Z,36.51
2022-08-16T18:26:41.321Z,36.85
2022-08-16T18:29:10.180Z,36.72
2022-08-16T18:31:39.856Z,36.44
2022-08-16T18:34:08.343Z,36.71
2022-08-16T18:36:38.431Z,36.43
2022-08-16T18:39:07.158Z,36.44
2022-08-16T18:41:37.391Z,36.44
2022-08-16T18:44:26.474Z,36.56
2022-08-16T18:46:57.057Z,36.94
2022-08-16T18:49:25.602Z,36.74
2022-08-16T18:51:59.169Z,36.75
2022-08-16T18:54:29.361Z,37.12
2022-08-16T18:56:58.513Z,37.13
2022-08-16T18:59:33.282Z,36.91
2022-08-16T19:02:04.712Z,37.22
2022-08-16T19:04:55.122Z,37.40
2022-08-16T19:07:31.337Z,37.41
2022-08-16T19:10:02.152Z,37.20
2022-08-16T19:12:38.723Z,37.05
2022-08-16T19:15:15.894Z,37.23
2022-08-16T19:17:45.386Z,37.58
2022-08-16T19:20:16.387Z,37.35
2022-08-16T19:23:05.171Z,38.38
2022-08-16T19:25:46.954Z,37.72
2022-08-16T19:28:48.931Z,37.74
2022-08-16T19:31:12.355Z,37.84
2022-08-16T19:33:53.821Z,37.43
2022-08-16T19:36:30.476Z,38.21
2022-08-16T19:39:05.774Z,37.87
2022-08-16T19:41:36.287Z,37.89
2022-08-16T19:44:05.546Z,37.77
2022-08-16T19:46:34.527Z,38.00
2022-08-16T19:49:03.336Z,38.10
2022-08-16T19:51:31.866Z,38.11
2022-08-16T19:54:00.422Z,38.33
2022-08-16T19:56:30.308Z,38.07
2022-08-16T20:01:49.377Z,38.56
2022-08-16T20:04:17.944Z,38.39
2022-08-16T20:06:47.035Z,38.59
2022-08-16T20:09:15.982Z,38.70
2022-08-16T20:11:46.828Z,38.48
2022-08-16T20:14:24.009Z,39.03
2022-08-16T20:16:54.377Z,38.75
2022-08-16T20:19:22.983Z,39.39
2022-08-16T20:21:51.618Z,39.37
2022-08-16T20:24:34.182Z,39.03
2022-08-16T20:27:06.272Z,39.71
2022-08-16T20:29:35.864Z,39.45
2022-08-16T20:32:06.482Z,39.57
2022-08-16T20:34:35.004Z,39.61
2022-08-16T20:37:05.222Z,39.90
2022-08-16T20:39:34.153Z,39.91
2022-08-16T20:42:05.598Z,39.51
2022-08-16T20:44:35.529Z,39.72
2022-08-16T20:47:03.969Z,40.06
2022-08-16T20:49:32.445Z,40.08
2022-08-16T20:52:01.120Z,39.99
2022-08-16T20:54:30.292Z,40.37
2022-08-16T20:56:58.783Z,40.32
2022-08-16T20:59:27.386Z,40.50
2022-08-16T21:01:57.445Z,40.94
2022-08-16T21:04:28.657Z,40.40
2022-08-16T21:06:58.531Z,40.79
2022-08-16T21:09:29.038Z,40.78
2022-08-16T21:12:01.168Z,41.00
2022-08-16T21:14:30.385Z,41.01
2022-08-16T21:17:00.232Z,40.73
2022-08-16T21:19:28.788Z,41.16
2022-08-16T21:21:57.563Z,41.03
2022-08-16T21:24:26.485Z,41.10
2022-08-16T21:26:56.381Z,41.56
2022-08-16T21:29:31.650Z,41.38
2022-08-16T21:32:13.667Z,41.14
2022-08-16T21:34:43.295Z,41.10
2022-08-16T21:37:12.417Z,41.50
2022-08-16T21:39:44.871Z,41.31
2022-08-16T21:42:17.125Z,41.60
2022-08-16T21:44:46.737Z,41.52
2022-08-16T21:47:16.642Z,41.51
2022-08-16T21:49:45.078Z,41.33
2022-08-16T21:52:26.333Z,41.20
2022-08-16T21:54:57.665Z,41.78
2022-08-16T21:57:26.262Z,41.60
2022-08-16T21:59:56.572Z,42.17
2022-08-16T22:02:35.633Z,41.61
2022-08-16T22:05:07.784Z,41.69
2022-08-16T22:07:36.319Z,41.75
2022-08-16T22:11:04.726Z,41.88
2022-08-16T22:12:55.297Z,42.25
2022-08-16T22:15:25.939Z,42.55
2022-08-16T22:17:58.082Z,42.37
2022-08-16T22:20:28.362Z,42.30
2022-08-16T22:23:07.593Z,42.74
2022-08-16T22:25:36.632Z,42.36
2022-08-16T22:28:06.356Z,43.07
2022-08-16T22:30:34.805Z,42.53
2022-08-16T22:33:09.634Z,42.78
2022-08-16T22:35:43.018Z,42.35
2022-08-16T22:38:56.717Z,42.73
2022-08-16T22:41:01.009Z,42.89
2022-08-16T22:43:30.801Z,42.62
2022-08-16T22:45:59.460Z,42.93
2022-08-16T22:48:29.982Z,42.63
2022-08-16T22:50:58.527Z,42.85
2022-08-16T22:53:27.887Z,42.92
2022-08-16T22:55:57.176Z,43.47
2022-08-16T22:58:34.183Z,43.85
2022-08-16T23:01:06.165Z,43.18
2022-08-16T23:03:36.520Z,43.08
2022-08-16T23:06:05.930Z,43.04
2022-08-16T23:08:39.602Z,43.41
2022-08-16T23:11:10.650Z,43.22
2022-08-16T23:13:52.661Z,43.59
2022-08-16T23:16:32.333Z,43.52
2022-08-16T23:19:03.427Z,43.53
2022-08-16T23:21:32.354Z,43.41
2022-08-16T23:24:01.008Z,43.60
2022-08-16T23:26:36.555Z,43.43
2022-08-16T23:29:23.864Z,43.71
2022-08-16T23:31:58.324Z,43.64
2022-08-16T23:34:29.778Z,43.78
2022-08-16T23:36:58.511Z,43.76
2022-08-16T23:39:27.156Z,44.02
2022-08-16T23:41:55.761Z,43.82
2022-08-16T23:44:55.698Z,44.06
2022-08-16T23:47:12.591Z,44.50
2022-08-16T23:49:59.855Z,44.25
2022-08-16T23:52:45.285Z,44.42
2022-08-16T23:55:21.379Z,44.50
2022-08-16T23:57:50.240Z,44.56
